createdAt,value
2023-05-13T00:01:31.529Z,43.97
2023-05-13T00:03:58.556Z,42.98
2023-05-13T00:06:25.613Z,44.71
2023-05-13T00:08:54.682Z,43.03
2023-05-13T00:11:21.701Z,44.18
2023-05-13T00:13:48.732Z,44.12
2023-05-13T00:16:15.989Z,43.99
2023-05-13T00:18:43.077Z,45.32
2023-05-13T00:21:10.459Z,45.20
2023-05-13T00:23:37.941Z,45.17
2023-05-13T00:26:05.222Z,45.77
2023-05-13T00:28:32.256Z,46.19
2023-05-13T00:30:59.332Z,45.16
2023-05-13T00:33:26.399Z,45.18
2023-05-13T00:35:53.465Z,45.00
2023-05-13T00:38:20.550Z,44.58
2023-05-13T00:40:48.449Z,45.73
2023-05-13T00:43:15.477Z,46.44
2023-05-13T00:45:42.550Z,45.17
2023-05-13T00:48:10.249Z,45.57
2023-05-13T00:50:38.857Z,46.15
2023-05-13T00:53:05.921Z,45.97
2023-05-13T00:55:33.130Z,45.72
2023-05-13T00:58:00.204Z,46.18
2023-05-13T01:00:31.161Z,46.70
2023-05-13T01:03:12.790Z,48.22
2023-05-13T01:05:56.807Z,46.98
2023-05-13T01:08:42.199Z,47.66
2023-05-13T01:11:29.636Z,46.34
2023-05-13T01:14:29.249Z,46.34
2023-05-13T01:17:07.896Z,45.93
2023-05-13T01:19:54.492Z,47.42
2023-05-13T01:22:21.583Z,46.32
2023-05-13T01:24:50.406Z,46.22
2023-05-13T01:27:17.778Z,46.43
2023-05-13T01:29:45.670Z,46.47
2023-05-13T01:32:13.971Z,46.79
2023-05-13T01:34:41.765Z,46.47
2023-05-13T01:37:09.215Z,45.96
2023-05-13T01:39:38.655Z,47.20
2023-05-13T01:42:09.239Z,48.16
2023-05-13T01:44:36.364Z,47.12
2023-05-13T01:47:03.423Z,47.81
2023-05-13T01:49:30.722Z,47.55
2023-05-13T01:51:57.891Z,48.00
2023-05-13T01:54:25.848Z,47.37
2023-05-13T01:56:52.936Z,47.30
2023-05-13T01:59:19.998Z,47.14
2023-05-13T02:01:47.057Z,47.98
2023-05-13T02:04:14.167Z,47.27
2023-05-13T02:06:41.235Z,47.99
2023-05-13T02:09:08.309Z,48.48
2023-05-13T02:11:36.473Z,49.76
2023-05-13T02:14:03.578Z,49.46
2023-05-13T02:16:31.625Z,49.36
2023-05-13T02:18:58.794Z,49.52
2023-05-13T02:21:26.023Z,49.13
2023-05-13T02:23:53.205Z,49.29
2023-05-13T02:26:20.781Z,50.05
2023-05-13T02:28:48.304Z,48.82
2023-05-13T02:31:15.389Z,49.68
2023-05-13T02:33:42.508Z,50.19
2023-05-13T02:36:09.635Z,48.47
2023-05-13T02:38:36.958Z,49.93
2023-05-13T02:41:04.100Z,51.38
2023-05-13T02:43:31.161Z,50.47
2023-05-13T02:45:58.355Z,50.63
2023-05-13T02:48:25.515Z,49.76
2023-05-13T02:50:52.724Z,50.65
2023-05-13T02:53:19.721Z,49.67
2023-05-13T02:55:46.919Z,50.12
2023-05-13T02:58:14.110Z,50.17
2023-05-13T03:00:41.315Z,50.25
2023-05-13T03:03:08.530Z,51.22
2023-05-13T03:05:35.746Z,50.33
2023-05-13T03:08:02.832Z,51.71
2023-05-13T03:10:29.972Z,50.50
2023-05-13T03:12:57.224Z,50.46
2023-05-13T03:15:24.437Z,50.97
2023-05-13T03:17:51.593Z,50.95
2023-05-13T03:20:18.861Z,50.72
2023-05-13T03:22:45.968Z,49.67
2023-05-13T03:25:13.037Z,51.28
2023-05-13T03:27:40.190Z,51.22
2023-05-13T03:30:08.287Z,50.61
2023-05-13T03:32:35.809Z,50.25
2023-05-13T03:35:03.574Z,49.99
2023-05-13T03:37:30.802Z,49.57
2023-05-13T03:39:57.970Z,50.84
2023-05-13T03:42:26.139Z,50.88
2023-05-13T03:44:53.264Z,50.82
2023-05-13T03:47:20.415Z,52.05
2023-05-13T03:49:48.851Z,51.77
2023-05-13T03:52:16.718Z,51.90
2023-05-13T03:54:43.993Z,51.68
2023-05-13T03:57:11.080Z,51.66
2023-05-13T03:59:38.138Z,51.82
2023-05-13T04:02:06.286Z,52.33
2023-05-13T04:04:33.461Z,51.79
2023-05-13T04:07:00.527Z,51.52
2023-05-13T04:09:27.578Z,52.15
2023-05-13T04:11:54.663Z,52.49
2023-05-13T04:14:21.706Z,51.72
2023-05-13T04:16:48.986Z,50.30
2023-05-13T04:19:16.419Z,52.50
2023-05-13T04:21:43.511Z,50.22
2023-05-13T04:24:10.840Z,49.67
2023-05-13T04:26:39.118Z,49.08
2023-05-13T04:29:06.160Z,50.06
2023-05-13T04:31:33.359Z,49.97
2023-05-13T04:34:00.893Z,50.33
2023-05-13T04:36:28.011Z,49.90
2023-05-13T04:38:55.696Z,49.83
2023-05-13T04:41:22.757Z,50.13
2023-05-13T04:43:49.855Z,49.50
2023-05-13T04:46:17.192Z,49.63
2023-05-13T04:48:48.155Z,49.22
2023-05-13T04:51:16.491Z,48.11
2023-05-13T04:53:44.090Z,48.97
2023-05-13T04:56:11.230Z,47.63
2023-05-13T04:58:38.817Z,47.22
2023-05-13T05:01:06.118Z,47.64
2023-05-13T05:03:33.828Z,46.21
2023-05-13T05:06:00.992Z,47.48
2023-05-13T05:08:28.781Z,46.46
2023-05-13T05:10:56.004Z,46.15
2023-05-13T05:13:23.114Z,45.56
2023-05-13T05:15:50.276Z,44.65
2023-05-13T05:18:17.395Z,45.29
2023-05-13T05:20:44.525Z,44.73
2023-05-13T05:23:11.807Z,44.16
2023-05-13T05:25:39.118Z,44.10
2023-05-13T05:28:06.385Z,43.84
2023-05-13T05:30:39.427Z,44.01
2023-05-13T05:33:08.186Z,45.22
2023-05-13T05:35:38.374Z,43.49
2023-05-13T05:38:07.760Z,43.64
2023-05-13T05:40:41.674Z,42.27
2023-05-13T05:43:10.961Z,41.29
2023-05-13T05:45:39.278Z,41.39
2023-05-13T05:48:07.490Z,40.95
2023-05-13T05:50:34.975Z,42.28
2023-05-13T05:53:02.842Z,40.00
2023-05-13T05:55:32.355Z,41.52
2023-05-13T05:58:05.333Z,41.08
2023-05-13T06:00:33.354Z,40.90
2023-05-13T06:03:00.624Z,40.50
2023-05-13T06:05:28.194Z,40.79
2023-05-13T06:07:55.261Z,40.21
2023-05-13T06:10:22.496Z,39.60
2023-05-13T06:12:51.326Z,40.09
2023-05-13T06:15:18.566Z,40.35
2023-05-13T06:17:45.666Z,37.93
2023-05-13T06:20:13.155Z,39.44
2023-05-13T06:22:41.761Z,40.14
2023-05-13T06:25:09.388Z,37.99
2023-05-13T06:27:37.141Z,38.82
2023-05-13T06:30:05.377Z,39.19
2023-05-13T06:32:32.663Z,39.39
2023-05-13T06:34:59.750Z,37.70
2023-05-13T06:37:27.044Z,37.90
2023-05-13T06:39:54.166Z,37.41
2023-05-13T06:42:21.390Z,37.07
2023-05-13T06:44:48.548Z,37.44
2023-05-13T06:47:22.511Z,37.42
2023-05-13T06:49:50.940Z,37.41
2023-05-13T06:52:18.315Z,38.05
2023-05-13T06:54:45.378Z,37.55
2023-05-13T06:57:12.451Z,37.00
2023-05-13T06:59:39.798Z,36.17
2023-05-13T07:02:09.680Z,38.06
2023-05-13T07:04:37.438Z,35.64
2023-05-13T07:07:04.907Z,36.12
2023-05-13T07:09:33.150Z,35.70
2023-05-13T07:12:00.382Z,34.32
2023-05-13T07:14:27.780Z,34.28
2023-05-13T07:16:54.984Z,34.49
2023-05-13T07:19:22.182Z,34.38
2023-05-13T07:21:49.548Z,34.05
2023-05-13T07:24:16.863Z,32.88
2023-05-13T07:26:45.132Z,33.27
2023-05-13T07:29:12.192Z,32.58
2023-05-13T07:31:39.406Z,32.20
2023-05-13T07:34:06.762Z,32.36
2023-05-13T07:36:34.249Z,32.79
2023-05-13T07:39:02.260Z,29.88
2023-05-13T07:41:29.580Z,30.94
2023-05-13T07:43:57.089Z,31.31
2023-05-13T07:46:24.223Z,30.77
2023-05-13T07:48:51.315Z,29.72
2023-05-13T07:51:18.440Z,30.23
2023-05-13T07:53:46.973Z,30.62
2023-05-13T07:56:14.048Z,30.08
2023-05-13T07:58:41.127Z,29.18
2023-05-13T08:01:08.249Z,29.72
2023-05-13T08:03:36.049Z,31.04
2023-05-13T08:06:03.345Z,29.91
2023-05-13T08:08:30.425Z,29.25
2023-05-13T08:10:57.712Z,30.07
2023-05-13T08:13:25.656Z,29.31
2023-05-13T08:15:52.725Z,31.05
2023-05-13T08:18:20.084Z,30.12
2023-05-13T08:20:47.268Z,28.38
2023-05-13T08:23:14.754Z,29.17
2023-05-13T08:25:41.929Z,28.87
2023-05-13T08:28:08.970Z,28.22
2023-05-13T08:30:38.877Z,29.65
2023-05-13T08:33:05.931Z,29.34
2023-05-13T08:35:33.162Z,28.58
2023-05-13T08:38:00.424Z,28.96
2023-05-13T08:40:28.015Z,27.07
2023-05-13T08:42:57.702Z,26.61
2023-05-13T08:45:28.804Z,27.53
2023-05-13T08:48:02.970Z,25.83
2023-05-13T08:50:30.667Z,26.73
2023-05-13T08:53:00.942Z,25.86
2023-05-13T08:55:29.207Z,26.65
2023-05-13T08:57:56.571Z,25.72
2023-05-13T09:00:23.944Z,26.17
2023-05-13T09:02:51.761Z,25.85
2023-05-13T09:05:21.230Z,28.42
2023-05-13T09:07:48.567Z,26.43
2023-05-13T09:10:17.491Z,26.05
2023-05-13T09:12:54.640Z,27.51
2023-05-13T09:15:27.507Z,24.76
2023-05-13T09:18:18.014Z,26.45
2023-05-13T09:20:46.121Z,26.49
2023-05-13T09:23:15.856Z,25.60
2023-05-13T09:25:43.795Z,25.28
2023-05-13T09:28:15.316Z,24.65
2023-05-13T09:30:46.157Z,24.80
2023-05-13T09:33:22.805Z,26.86
2023-05-13T09:35:53.602Z,26.24
2023-05-13T09:38:37.071Z,26.48
2023-05-13T09:41:04.991Z,24.69
2023-05-13T09:43:33.686Z,26.80
2023-05-13T09:46:08.963Z,24.98
2023-05-13T09:48:39.208Z,25.25
2023-05-13T09:51:06.281Z,24.85
2023-05-13T09:53:36.100Z,24.89
2023-05-13T09:56:03.234Z,24.39
2023-05-13T09:58:31.049Z,24.93
2023-05-13T10:00:58.704Z,23.18
2023-05-13T10:03:27.246Z,24.58
2023-05-13T10:05:55.167Z,23.27
2023-05-13T10:08:23.311Z,22.97
2023-05-13T10:10:53.908Z,23.19
2023-05-13T10:13:25.384Z,23.02
2023-05-13T10:15:55.371Z,22.32
2023-05-13T10:18:27.448Z,21.22
2023-05-13T10:20:55.660Z,21.57
2023-05-13T10:23:24.202Z,23.39
2023-05-13T10:25:55.308Z,21.75
2023-05-13T10:28:25.088Z,22.50
2023-05-13T10:30:52.512Z,24.23
2023-05-13T10:33:20.535Z,24.91
2023-05-13T10:36:22.538Z,24.45
2023-05-13T10:39:42.627Z,24.88
2023-05-13T10:42:43.056Z,23.87
2023-05-13T10:45:11.178Z,24.64
2023-05-13T10:47:39.343Z,25.29
2023-05-13T10:50:26.978Z,25.16
2023-05-13T10:52:58.651Z,24.68
2023-05-13T10:55:27.382Z,25.04
2023-05-13T10:58:14.958Z,22.64
2023-05-13T11:00:45.345Z,23.69
2023-05-13T11:03:20.281Z,24.03
2023-05-13T11:06:13.441Z,25.50
2023-05-13T11:08:50.216Z,23.18
2023-05-13T11:11:23.072Z,23.83
2023-05-13T11:14:03.571Z,23.54
2023-05-13T11:16:33.091Z,24.83
2023-05-13T11:19:18.833Z,23.81
2023-05-13T11:21:52.917Z,22.23
2023-05-13T11:24:22.038Z,23.32
2023-05-13T11:26:52.880Z,21.37
2023-05-13T11:29:36.149Z,21.87
2023-05-13T11:32:06.791Z,23.32
2023-05-13T11:34:34.848Z,21.34
2023-05-13T11:37:04.957Z,20.87
2023-05-13T11:39:33.363Z,19.77
2023-05-13T11:42:03.955Z,22.45
2023-05-13T11:44:31.562Z,20.67
2023-05-13T11:47:03.141Z,23.13
2023-05-13T11:49:41.391Z,22.05
2023-05-13T11:52:15.114Z,21.21
2023-05-13T11:54:54.039Z,22.33
2023-05-13T11:57:32.438Z,20.93
2023-05-13T12:00:08.441Z,20.43
2023-05-13T12:02:40.155Z,21.27
2023-05-13T12:05:11.179Z,22.52
2023-05-13T12:07:39.780Z,21.12
2023-05-13T12:10:08.242Z,22.38
2023-05-13T12:12:50.558Z,22.55
2023-05-13T12:15:20.873Z,20.96
2023-05-13T12:17:49.360Z,21.40
2023-05-13T12:20:24.609Z,20.19
2023-05-13T12:22:54.660Z,21.55
2023-05-13T12:25:46.561Z,21.76
2023-05-13T12:28:24.107Z,21.29
2023-05-13T12:30:56.876Z,20.17
2023-05-13T12:33:27.569Z,21.55
2023-05-13T12:36:16.162Z,20.69
2023-05-13T12:39:01.048Z,19.95
2023-05-13T12:41:36.344Z,20.57
2023-05-13T12:44:08.731Z,21.66
2023-05-13T12:46:37.298Z,22.52
2023-05-13T12:49:06.062Z,22.14
2023-05-13T12:51:33.994Z,21.51
2023-05-13T12:54:01.657Z,21.55
2023-05-13T12:56:29.051Z,21.40
2023-05-13T12:58:56.297Z,19.27
2023-05-13T13:01:28.390Z,20.69
2023-05-13T13:03:55.929Z,21.34
2023-05-13T13:06:23.165Z,20.69
2023-05-13T13:08:50.977Z,21.55
2023-05-13T13:11:21.503Z,21.26
2023-05-13T13:13:50.269Z,20.23
2023-05-13T13:16:20.530Z,20.60
2023-05-13T13:18:47.737Z,20.03
2023-05-13T13:21:15.065Z,22.49
2023-05-13T13:23:42.372Z,22.48
2023-05-13T13:26:09.517Z,24.19
2023-05-13T13:28:39.934Z,21.84
2023-05-13T13:31:10.707Z,22.91
2023-05-13T13:33:37.724Z,21.99
2023-05-13T13:36:05.330Z,22.15
2023-05-13T13:38:32.426Z,22.13
2023-05-13T13:40:59.557Z,23.09
2023-05-13T13:43:31.270Z,22.67
2023-05-13T13:45:58.640Z,22.77
2023-05-13T13:48:25.754Z,22.81
2023-05-13T13:50:54.038Z,21.74
2023-05-13T13:53:22.106Z,23.36
2023-05-13T13:55:49.316Z,23.28
2023-05-13T13:58:16.436Z,23.89
2023-05-13T14:00:45.012Z,25.02
2023-05-13T14:03:12.289Z,24.09
2023-05-13T14:05:39.548Z,23.27
2023-05-13T14:08:06.951Z,25.27
2023-05-13T14:10:34.156Z,25.50
2023-05-13T14:13:01.277Z,24.96
2023-05-13T14:15:31.559Z,24.92
2023-05-13T14:17:58.967Z,24.34
2023-05-13T14:20:28.741Z,22.98
2023-05-13T14:22:56.509Z,23.27
2023-05-13T14:25:23.635Z,22.77
2023-05-13T14:27:50.713Z,23.13
2023-05-13T14:30:18.013Z,24.26
2023-05-13T14:32:45.473Z,23.19
2023-05-13T14:35:14.510Z,23.11
2023-05-13T14:37:42.680Z,21.75
2023-05-13T14:40:10.402Z,21.17
2023-05-13T14:42:37.474Z,21.73
2023-05-13T14:45:05.945Z,19.41
2023-05-13T14:47:33.186Z,22.53
2023-05-13T14:50:00.340Z,21.48
2023-05-13T14:52:30.420Z,21.81
2023-05-13T14:55:00.564Z,22.08
2023-05-13T14:57:27.670Z,23.04
2023-05-13T14:59:59.852Z,22.74
2023-05-13T15:02:27.315Z,23.70
2023-05-13T15:04:54.483Z,23.92
2023-05-13T15:07:21.776Z,24.31
2023-05-13T15:09:49.044Z,23.58
2023-05-13T15:12:16.134Z,24.45
2023-05-13T15:14:43.162Z,22.27
2023-05-13T15:17:12.101Z,22.51
2023-05-13T15:19:39.875Z,23.74
2023-05-13T15:22:06.966Z,24.31
2023-05-13T15:24:33.983Z,22.98
2023-05-13T15:27:03.670Z,24.16
2023-05-13T15:29:33.355Z,24.05
2023-05-13T15:32:00.381Z,24.00
2023-05-13T15:34:27.472Z,24.66
2023-05-13T15:36:54.561Z,26.53
2023-05-13T15:39:21.941Z,25.38
2023-05-13T15:41:49.057Z,26.30
2023-05-13T15:44:19.047Z,27.00
2023-05-13T15:46:48.845Z,26.96
2023-05-13T15:49:17.001Z,27.50
2023-05-13T15:51:44.154Z,27.22
2023-05-13T15:54:11.278Z,26.12
2023-05-13T15:56:39.806Z,27.18
2023-05-13T15:59:09.000Z,25.98
2023-05-13T16:01:37.509Z,26.02
2023-05-13T16:04:04.705Z,25.10
2023-05-13T16:06:31.851Z,25.62
2023-05-13T16:09:04.778Z,26.87
2023-05-13T16:11:34.363Z,27.92
2023-05-13T16:14:01.643Z,28.11
2023-05-13T16:16:28.768Z,27.62
2023-05-13T16:18:58.569Z,29.62
2023-05-13T16:21:25.774Z,28.85
2023-05-13T16:23:52.856Z,29.49
2023-05-13T16:26:19.983Z,29.77
2023-05-13T16:28:47.054Z,28.33
2023-05-13T16:31:14.257Z,30.13
2023-05-13T16:33:41.324Z,28.66
2023-05-13T16:36:11.686Z,28.25
2023-05-13T16:38:41.801Z,29.09
2023-05-13T16:41:09.340Z,29.90
2023-05-13T16:43:36.465Z,27.86
2023-05-13T16:46:03.898Z,28.95
2023-05-13T16:48:31.092Z,29.26
2023-05-13T16:50:58.311Z,28.33
2023-05-13T16:53:26.284Z,28.89
2023-05-13T16:55:56.405Z,29.50
2023-05-13T16:58:23.876Z,29.69
2023-05-13T17:00:51.929Z,30.71
2023-05-13T17:03:19.572Z,28.66
2023-05-13T17:05:46.676Z,30.19
2023-05-13T17:08:13.747Z,29.69
2023-05-13T17:10:43.640Z,30.60
2023-05-13T17:13:10.808Z,31.02
2023-05-13T17:15:37.890Z,30.29
2023-05-13T17:18:05.631Z,30.03
2023-05-13T17:20:35.747Z,31.43
2023-05-13T17:23:02.965Z,30.45
2023-05-13T17:25:30.083Z,31.08
2023-05-13T17:27:57.218Z,32.91
2023-05-13T17:30:24.524Z,34.23
2023-05-13T17:32:51.771Z,33.52
2023-05-13T17:35:19.393Z,34.99
2023-05-13T17:37:46.462Z,33.83
2023-05-13T17:40:16.388Z,33.64
2023-05-13T17:42:43.837Z,34.97
2023-05-13T17:45:11.264Z,35.80
2023-05-13T17:47:40.832Z,36.55
2023-05-13T17:50:10.618Z,37.42
2023-05-13T17:52:40.030Z,37.84
2023-05-13T17:55:08.026Z,37.40
2023-05-13T17:57:35.231Z,37.37
2023-05-13T18:00:06.445Z,37.41
2023-05-13T18:02:33.989Z,37.76
2023-05-13T18:05:01.133Z,37.70
2023-05-13T18:07:28.396Z,38.48
2023-05-13T18:09:56.575Z,39.49
2023-05-13T18:12:23.693Z,38.87
2023-05-13T18:14:50.785Z,38.85
2023-05-13T18:17:17.869Z,39.61
2023-05-13T18:19:50.810Z,39.15
2023-05-13T18:22:18.083Z,39.15
2023-05-13T18:24:46.695Z,39.39
2023-05-13T18:27:14.026Z,39.99
2023-05-13T18:29:41.082Z,40.79
2023-05-13T18:32:11.184Z,40.88
2023-05-13T18:34:38.210Z,41.74
2023-05-13T18:37:09.860Z,40.83
2023-05-13T18:39:36.941Z,40.53
2023-05-13T18:42:04.296Z,41.74
2023-05-13T18:44:31.451Z,42.67
2023-05-13T18:46:58.496Z,42.16
2023-05-13T18:49:28.666Z,41.39
2023-05-13T18:51:56.040Z,41.85
2023-05-13T18:54:24.654Z,42.63
2023-05-13T18:56:51.769Z,42.58
2023-05-13T18:59:18.891Z,43.15
2023-05-13T19:01:46.401Z,42.89
2023-05-13T19:04:15.278Z,43.60
2023-05-13T19:06:42.479Z,45.07
2023-05-13T19:09:12.255Z,46.26
2023-05-13T19:11:39.478Z,47.75
2023-05-13T19:14:07.094Z,47.49
2023-05-13T19:16:34.529Z,46.97
2023-05-13T19:19:01.659Z,47.39
2023-05-13T19:21:28.735Z,47.00
2023-05-13T19:23:55.954Z,46.00
2023-05-13T19:26:23.039Z,45.34
2023-05-13T19:28:50.592Z,46.52
2023-05-13T19:31:18.091Z,48.46
2023-05-13T19:33:46.333Z,47.22
2023-05-13T19:36:13.629Z,47.64
2023-05-13T19:38:40.750Z,46.86
2023-05-13T19:41:07.827Z,49.85
2023-05-13T19:43:34.867Z,51.07
2023-05-13T19:46:05.531Z,52.08
2023-05-13T19:48:32.664Z,53.26
2023-05-13T19:50:59.715Z,54.77
2023-05-13T19:53:26.890Z,53.16
2023-05-13T19:55:55.398Z,54.01
2023-05-13T19:58:22.741Z,52.25
2023-05-13T20:00:51.003Z,54.00
2023-05-13T20:03:18.120Z,54.37
2023-05-13T20:05:50.925Z,55.58
2023-05-13T20:08:17.976Z,54.92
2023-05-13T20:10:45.225Z,55.48
2023-05-13T20:13:12.714Z,56.02
2023-05-13T20:15:40.529Z,55.77
2023-05-13T20:18:07.690Z,55.63
2023-05-13T20:20:35.361Z,56.50
2023-05-13T20:23:02.438Z,56.57
2023-05-13T20:25:29.534Z,56.18
2023-05-13T20:27:56.977Z,57.67
2023-05-13T20:30:24.712Z,57.75
2023-05-13T20:32:52.166Z,58.24
2023-05-13T20:35:19.701Z,57.96
2023-05-13T20:37:46.770Z,57.05
2023-05-13T20:40:13.948Z,57.42
2023-05-13T20:42:41.211Z,59.01
2023-05-13T20:45:08.898Z,59.07
2023-05-13T20:47:36.368Z,60.10
2023-05-13T20:50:04.172Z,59.58
2023-05-13T20:52:31.433Z,58.54
2023-05-13T20:55:01.468Z,56.11
2023-05-13T20:57:28.567Z,55.17
2023-05-13T20:59:55.729Z,54.81
2023-05-13T21:02:22.941Z,55.66
2023-05-13T21:04:52.681Z,54.34
2023-05-13T21:07:22.170Z,54.71
2023-05-13T21:09:49.236Z,58.08
2023-05-13T21:12:16.337Z,57.66
2023-05-13T21:14:43.494Z,59.05
2023-05-13T21:17:10.928Z,58.00
2023-05-13T21:19:38.079Z,56.65
2023-05-13T21:22:05.909Z,55.81
2023-05-13T21:24:33.074Z,56.29
2023-05-13T21:27:00.142Z,58.32
2023-05-13T21:29:30.162Z,58.59
2023-05-13T21:31:57.402Z,57.20
2023-05-13T21:34:24.483Z,59.96
2023-05-13T21:36:52.472Z,61.14
2023-05-13T21:39:19.625Z,60.22
2023-05-13T21:41:47.623Z,57.48
2023-05-13T21:44:14.692Z,55.10
2023-05-13T21:46:41.734Z,55.05
2023-05-13T21:49:08.866Z,59.09
2023-05-13T21:51:35.998Z,58.78
2023-05-13T21:54:03.125Z,57.04
2023-05-13T21:56:30.177Z,56.42
2023-05-13T21:58:57.206Z,55.63
2023-05-13T22:01:24.506Z,55.66
2023-05-13T22:03:51.638Z,55.29
2023-05-13T22:06:18.970Z,54.38
2023-05-13T22:08:46.270Z,54.52
2023-05-13T22:11:13.301Z,55.61
2023-05-13T22:13:41.043Z,54.63
2023-05-13T22:16:08.380Z,53.86
2023-05-13T22:18:35.676Z,54.41
2023-05-13T22:21:03.014Z,54.13
2023-05-13T22:23:30.051Z,54.82
2023-05-13T22:25:57.125Z,54.15
2023-05-13T22:28:26.519Z,53.59
2023-05-13T22:30:55.190Z,53.44
2023-05-13T22:33:22.360Z,52.43
2023-05-13T22:35:49.492Z,52.59
2023-05-13T22:38:16.610Z,53.53
2023-05-13T22:40:43.733Z,52.97
2023-05-13T22:43:10.850Z,52.77
2023-05-13T22:45:37.957Z,52.86
2023-05-13T22:48:05.265Z,52.60
2023-05-13T22:50:32.432Z,52.45
2023-05-13T22:52:59.531Z,52.67
2023-05-13T22:55:26.572Z,52.14
2023-05-13T22:57:53.679Z,54.54
2023-05-13T23:00:21.238Z,58.73
2023-05-13T23:02:48.438Z,58.85
2023-05-13T23:05:15.777Z,57.17
2023-05-13T23:07:42.833Z,58.80
2023-05-13T23:10:12.520Z,57.93
2023-05-13T23:12:39.615Z,56.37
2023-05-13T23:15:07.496Z,55.73
2023-05-13T23:17:34.657Z,56.38
2023-05-13T23:20:01.768Z,55.70
2023-05-13T23:22:28.957Z,57.40
2023-05-13T23:24:56.059Z,54.58
2023-05-13T23:27:23.132Z,54.20
2023-05-13T23:29:50.238Z,54.07
2023-05-13T23:32:17.409Z,53.80
2023-05-13T23:34:44.635Z,53.84
2023-05-13T23:37:15.577Z,54.96
2023-05-13T23:39:42.694Z,56.85
2023-05-13T23:42:09.754Z,55.07
2023-05-13T23:44:38.664Z,53.88
2023-05-13T23:47:05.888Z,53.56
2023-05-13T23:49:32.935Z,52.07
2023-05-13T23:51:59.988Z,51.52
2023-05-13T23:54:27.030Z,55.74
2023-05-13T23:56:54.088Z,53.49
2023-05-13T23:59:21.122Z,52.90
